Latest Weather Observations for Melville Water

IDW60801

Issued at 9:23 pm WST Friday 15 November 2019 (issued every 10 minutes, with the page automatically refreshed every 10 minutes)

About weather observations | Map of weather stations | Latest weather observations for WA | Other Formats
Station Details ID: 009091 Name: INNER DOLPHIN PYLON Lat: -31.99 Lon: 115.83 Height: 0.0 m
Data from the previous 72 hours. | See also: Recent months at Melville Water
Date/Time
WST
Temp
°C
App
Temp
°C
Dew
Point
°C
Rel
Hum
%
Delta-T
°C
Wind Press
QNH
hPa
Press
MSL
hPa
Rain since
9am
mm
Dir  Spd
km/h
Gust
km/h
Spd
kts
Gust
kts
15/09:00pm - - - - - SW 9 11 5 6 - - -
15/08:30pm - - - - - CALM 0 6 0 3 - - -
15/08:00pm - - - - - CALM 0 2 0 1 - - -
15/07:30pm - - - - - SW 9 11 5 6 - - -
15/07:00pm - - - - - SW 11 20 6 11 - - -
15/06:30pm - - - - - SW 15 17 8 9 - - -
15/06:00pm - - - - - SW 19 20 10 11 - - -
15/05:30pm - - - - - SSW 28 32 15 17 - - -
15/05:00pm - - - - - SSW 22 26 12 14 - - -
15/04:30pm - - - - - SSW 22 30 12 16 - - -
15/04:00pm - - - - - SW 22 30 12 16 - - -
15/03:30pm - - - - - SW 19 22 10 12 - - -
15/03:00pm - - - - - S 6 13 3 7 - - -
15/02:30pm - - - - - SSE 7 13 4 7 - - -
15/02:00pm - - - - - SSE 7 11 4 6 - - -
15/01:30pm - - - - - E 11 22 6 12 - - -
15/01:00pm - - - - - E 13 20 7 11 - - -
15/12:30pm - - - - - NE 17 24 9 13 - - -
15/12:00pm - - - - - NE 19 26 10 14 - - -
15/11:30am - - - - - ESE 19 26 10 14 - - -
15/11:00am - - - - - E 22 33 12 18 - - -
15/10:30am - - - - - E 24 33 13 18 - - -
15/10:00am - - - - - E 20 28 11 15 - - -
15/09:30am - - - - - ESE 20 28 11 15 - - -
15/09:00am - - - - - E 19 26 10 14 - - -
15/08:30am - - - - - ESE 17 22 9 12 - - -
15/08:00am - - - - - ESE 24 28 13 15 - - -
15/07:30am - - - - - SE 20 26 11 14 - - -
15/07:00am - - - - - ESE 24 32 13 17 - - -
15/06:30am - - - - - ESE 20 24 11 13 - - -
15/06:00am - - - - - ESE 26 35 14 19 - - -
15/05:30am - - - - - ESE 24 28 13 15 - - -
15/05:00am - - - - - ESE 28 35 15 19 - - -
15/04:30am - - - - - ESE 26 33 14 18 - - -
15/04:00am - - - - - ESE 26 35 14 19 - - -
15/03:30am - - - - - ESE 24 30 13 16 - - -
15/03:00am - - - - - ESE 17 22 9 12 - - -
15/02:30am - - - - - ESE 17 26 9 14 - - -
15/02:00am - - - - - ESE 22 28 12 15 - - -
15/01:30am - - - - - ESE 24 33 13 18 - - -
15/01:00am - - - - - E 22 28 12 15 - - -
15/12:30am - - - - - ESE 26 35 14 19 - - -
15/12:00am - - - - - ESE 32 44 17 24 - - -
 
Date/Time
WST
Temp
°C
App
Temp
°C
Dew
Point
°C
Rel
Hum
%
Delta-T
°C
Wind Press
QNH
hPa
Press
MSL
hPa
Rain since
9am
mm
Dir  Spd
km/h
Gust
km/h
Spd
kts
Gust
kts
14/11:54pm - - - - - E 30 44 16 24 - - -
14/11:30pm - - - - - ESE 19 26 10 14 - - -
14/11:00pm - - - - - SE 11 19 6 10 - - -
14/10:30pm - - - - - SSE 11 15 6 8 - - -
14/10:00pm - - - - - S 13 19 7 10 - - -
14/09:30pm - - - - - S 15 19 8 10 - - -
14/09:00pm - - - - - S 13 17 7 9 - - -
14/08:30pm - - - - - SSW 13 19 7 10 - - -
14/08:00pm - - - - - SSW 15 19 8 10 - - -
14/07:30pm - - - - - SW 15 19 8 10 - - -
14/07:00pm - - - - - SW 17 19 9 10 - - -
14/06:30pm - - - - - SW 19 20 10 11 - - -
14/06:00pm - - - - - SW 20 24 11 13 - - -
14/05:30pm - - - - - SW 20 22 11 12 - - -
14/05:00pm - - - - - SW 20 24 11 13 - - -
14/04:30pm - - - - - SW 19 22 10 12 - - -
14/04:00pm - - - - - SW 20 26 11 14 - - -
14/03:30pm - - - - - SSW 20 24 11 13 - - -
14/03:00pm - - - - - SSW 20 22 11 12 - - -
14/02:30pm - - - - - SSW 22 26 12 14 - - -
14/02:00pm - - - - - SW 22 26 12 14 - - -
14/01:30pm - - - - - SW 22 26 12 14 - - -
14/01:00pm - - - - - SW 22 26 12 14 - - -
14/12:30pm - - - - - SW 20 22 11 12 - - -
14/12:00pm - - - - - SW 17 19 9 10 - - -
14/11:30am - - - - - SW 13 15 7 8 - - -
14/11:00am - - - - - SSW 7 13 4 7 - - -
14/10:30am - - - - - CALM 0 7 0 4 - - -
14/10:00am - - - - - CALM 0 0 0 0 - - -
14/09:30am - - - - - CALM 0 0 0 0 - - -
14/09:00am - - - - - CALM 0 0 0 0 - - -
14/08:30am - - - - - CALM 0 0 0 0 - - -
14/08:00am - - - - - ENE 2 9 1 5 - - -
14/07:30am - - - - - ESE 4 9 2 5 - - -
14/07:00am - - - - - ESE 4 7 2 4 - - -
14/06:30am - - - - - SE 6 9 3 5 - - -
14/06:00am - - - - - CALM 0 0 0 0 - - -
14/05:30am - - - - - CALM 0 0 0 0 - - -
14/05:00am - - - - - S 6 9 3 5 - - -
14/04:30am - - - - - CALM 0 0 0 0 - - -
14/04:00am - - - - - S 6 7 3 4 - - -
14/03:30am - - - - - SE 11 13 6 7 - - -
14/03:00am - - - - - SE 4 11 2 6 - - -
14/02:30am - - - - - ENE 4 11 2 6 - - -
14/02:00am - - - - - SSE 7 13 4 7 - - -
14/01:30am - - - - - SSE 9 15 5 8 - - -
14/01:00am - - - - - S 6 9 3 5 - - -
14/12:30am - - - - - CALM 0 0 0 0 - - -
14/12:00am - - - - - SSW 4 9 2 5 - - -
 
Date/Time
WST
Temp
°C
App
Temp
°C
Dew
Point
°C
Rel
Hum
%
Delta-T
°C
Wind Press
QNH
hPa
Press
MSL
hPa
Rain since
9am
mm
Dir  Spd
km/h
Gust
km/h
Spd
kts
Gust
kts
13/11:30pm - - - - - CALM 0 2 0 1 - - -
13/11:00pm - - - - - CALM 0 4 0 2 - - -
13/10:30pm - - - - - SSW 7 11 4 6 - - -
13/10:00pm - - - - - SSE 15 20 8 11 - - -
13/09:30pm - - - - - SSE 17 22 9 12 - - -
13/09:00pm - - - - - SSE 20 28 11 15 - - -
13/08:30pm - - - - - S 26 33 14 18 - - -
13/08:00pm - - - - - S 24 33 13 18 - - -
13/07:30pm - - - - - S 20 28 11 15 - - -
13/07:00pm - - - - - SSW 20 22 11 12 - - -
13/06:30pm - - - - - SSW 20 24 11 13 - - -
13/06:00pm - - - - - SSW 24 28 13 15 - - -
13/05:30pm - - - - - SSW 28 33 15 18 - - -
13/05:00pm - - - - - SSW 26 28 14 15 - - -
13/04:30pm - - - - - SW 22 24 12 13 - - -
13/04:00pm - - - - - SW 20 28 11 15 - - -
13/03:30pm - - - - - SW 22 24 12 13 - - -
13/03:00pm - - - - - SW 20 24 11 13 - - -
13/02:30pm - - - - - SW 22 24 12 13 - - -
13/02:00pm - - - - - SW 15 19 8 10 - - -
13/01:30pm - - - - - WSW 7 9 4 5 - - -
13/01:00pm - - - - - CALM 0 0 0 0 - - -
13/12:30pm - - - - - CALM 0 6 0 3 - - -
13/12:00pm - - - - - NE 11 17 6 9 - - -
13/11:30am - - - - - NE 11 20 6 11 - - -
13/11:00am - - - - - ENE 11 15 6 8 - - -
13/10:30am - - - - - ENE 13 19 7 10 - - -
13/10:00am - - - - - ENE 17 22 9 12 - - -
13/09:30am - - - - - ENE 19 26 10 14 - - -
13/09:00am - - - - - ENE 20 32 11 17 - - -
13/08:30am - - - - - ENE 24 30 13 16 - - -
13/08:00am - - - - - ENE 22 30 12 16 - - -
13/07:30am - - - - - ENE 17 20 9 11 - - -
13/07:00am - - - - - E 9 15 5 8 - - -
13/06:30am - - - - - ESE 13 19 7 10 - - -
13/06:00am - - - - - ESE 15 17 8 9 - - -
13/05:30am - - - - - ESE 13 17 7 9 - - -
13/05:00am - - - - - ESE 17 20 9 11 - - -
13/04:30am - - - - - ESE 15 19 8 10 - - -
13/04:00am - - - - - ESE 15 17 8 9 - - -
13/03:30am - - - - - ESE 13 20 7 11 - - -
13/03:00am - - - - - E 24 33 13 18 - - -
13/02:30am - - - - - E 24 30 13 16 - - -
13/02:00am - - - - - E 24 33 13 18 - - -
13/01:30am - - - - - E 19 22 10 12 - - -
13/01:00am - - - - - ESE 15 22 8 12 - - -
13/12:30am - - - - - E 19 26 10 14 - - -
13/12:00am - - - - - E 17 22 9 12 - - -
 
Date/Time
WST
Temp
°C
App
Temp
°C
Dew
Point
°C
Rel
Hum
%
Delta-T
°C
Wind Press
QNH
hPa
Press
MSL
hPa
Rain since
9am
mm
Dir  Spd
km/h
Gust
km/h
Spd
kts
Gust
kts
12/11:30pm - - - - - E 20 32 11 17 - - -
12/11:00pm - - - - - ESE 20 24 11 13 - - -
12/10:30pm - - - - - ESE 28 39 15 21 - - -
12/10:00pm - - - - - ESE 26 37 14 20 - - -
12/09:30pm - - - - - ESE 24 32 13 17 - - -

Other formats

Comma delimited format used in spreadsheet applications
http://www.bom.gov.au/fwo/IDW60801/IDW60801.95620.axf

JavaScript Object Notation format (JSON) in row-major order
http://www.bom.gov.au/fwo/IDW60801/IDW60801.95620.json

Data quality

Most of these data are generated automatically and are frequently updated. Quality checks on data are not normally performed. It is possible for incorrect values to appear. Refer to information at About Latest Weather Observations and please check the disclaimer before using these data.